sensor_id;sensor_type;location;lat;lon;timestamp;P1;durP1;ratioP1;P2;durP2;ratioP2
75316;SDS011;63913;51.492;10.368;2023-11-19T00:00:15;1.33;;;0.80;;
75316;SDS011;63913;51.492;10.368;2023-11-19T00:02:41;1.50;;;0.82;;
75316;SDS011;63913;51.492;10.368;2023-11-19T00:05:08;1.08;;;0.98;;
75316;SDS011;63913;51.492;10.368;2023-11-19T00:07:37;1.00;;;0.90;;
75316;SDS011;63913;51.492;10.368;2023-11-19T00:10:15;1.83;;;1.20;;
75316;SDS011;63913;51.492;10.368;2023-11-19T00:12:45;1.10;;;0.80;;
75316;SDS011;63913;51.492;10.368;2023-11-19T00:15:12;0.43;;;0.43;;
75316;SDS011;63913;51.492;10.368;2023-11-19T00:17:41;0.82;;;0.82;;
75316;SDS011;63913;51.492;10.368;2023-11-19T00:20:11;1.02;;;0.57;;
75316;SDS011;63913;51.492;10.368;2023-11-19T00:22:37;0.40;;;0.40;;
75316;SDS011;63913;51.492;10.368;2023-11-19T00:25:03;0.70;;;0.70;;
75316;SDS011;63913;51.492;10.368;2023-11-19T00:27:29;0.80;;;0.80;;
75316;SDS011;63913;51.492;10.368;2023-11-19T00:29:54;0.80;;;0.73;;
75316;SDS011;63913;51.492;10.368;2023-11-19T00:32:20;0.82;;;0.80;;
75316;SDS011;63913;51.492;10.368;2023-11-19T00:34:45;0.82;;;0.70;;
75316;SDS011;63913;51.492;10.368;2023-11-19T00:37:13;2.53;;;0.90;;
75316;SDS011;63913;51.492;10.368;2023-11-19T00:39:39;0.47;;;0.47;;
75316;SDS011;63913;51.492;10.368;2023-11-19T00:42:04;0.82;;;0.80;;
75316;SDS011;63913;51.492;10.368;2023-11-19T00:44:30;0.70;;;0.70;;
75316;SDS011;63913;51.492;10.368;2023-11-19T00:46:56;0.55;;;0.50;;
75316;SDS011;63913;51.492;10.368;2023-11-19T00:49:21;0.60;;;0.60;;
75316;SDS011;63913;51.492;10.368;2023-11-19T00:51:46;0.85;;;0.85;;
75316;SDS011;63913;51.492;10.368;2023-11-19T00:54:12;0.70;;;0.60;;
75316;SDS011;63913;51.492;10.368;2023-11-19T00:56:37;0.25;;;0.25;;
75316;SDS011;63913;51.492;10.368;2023-11-19T00:59:02;0.40;;;0.40;;
75316;SDS011;63913;51.492;10.368;2023-11-19T01:01:29;0.65;;;0.40;;
75316;SDS011;63913;51.492;10.368;2023-11-19T01:03:55;0.50;;;0.50;;
75316;SDS011;63913;51.492;10.368;2023-11-19T01:06:31;0.75;;;0.40;;
75316;SDS011;63913;51.492;10.368;2023-11-19T01:08:57;0.20;;;0.20;;
75316;SDS011;63913;51.492;10.368;2023-11-19T01:11:24;0.50;;;0.50;;
75316;SDS011;63913;51.492;10.368;2023-11-19T01:13:50;0.80;;;0.73;;
75316;SDS011;63913;51.492;10.368;2023-11-19T01:16:16;0.30;;;0.20;;
75316;SDS011;63913;51.492;10.368;2023-11-19T01:18:41;1.02;;;0.50;;
75316;SDS011;63913;51.492;10.368;2023-11-19T01:21:07;0.38;;;0.38;;
75316;SDS011;63913;51.492;10.368;2023-11-19T01:23:32;0.20;;;0.20;;
75316;SDS011;63913;51.492;10.368;2023-11-19T01:25:59;0.20;;;0.20;;
75316;SDS011;63913;51.492;10.368;2023-11-19T01:28:24;0.30;;;0.30;;
75316;SDS011;63913;51.492;10.368;2023-11-19T01:30:53;0.17;;;0.17;;
75316;SDS011;63913;51.492;10.368;2023-11-19T01:33:19;0.10;;;0.10;;
75316;SDS011;63913;51.492;10.368;2023-11-19T01:35:44;0.30;;;0.30;;
75316;SDS011;63913;51.492;10.368;2023-11-19T01:38:10;0.20;;;0.20;;
75316;SDS011;63913;51.492;10.368;2023-11-19T01:40:36;0.30;;;0.30;;
75316;SDS011;63913;51.492;10.368;2023-11-19T01:43:02;0.20;;;0.20;;
75316;SDS011;63913;51.492;10.368;2023-11-19T01:45:29;0.13;;;0.13;;
75316;SDS011;63913;51.492;10.368;2023-11-19T01:47:58;0.55;;;0.30;;
75316;SDS011;63913;51.492;10.368;2023-11-19T01:50:25;0.20;;;0.20;;
75316;SDS011;63913;51.492;10.368;2023-11-19T01:52:52;0.43;;;0.40;;
75316;SDS011;63913;51.492;10.368;2023-11-19T01:55:19;0.30;;;0.30;;
75316;SDS011;63913;51.492;10.368;2023-11-19T01:57:45;0.73;;;0.70;;
75316;SDS011;63913;51.492;10.368;2023-11-19T02:00:12;0.35;;;0.30;;
75316;SDS011;63913;51.492;10.368;2023-11-19T02:02:43;0.35;;;0.35;;
75316;SDS011;63913;51.492;10.368;2023-11-19T02:05:12;0.28;;;0.28;;
75316;SDS011;63913;51.492;10.368;2023-11-19T02:07:38;0.43;;;0.35;;
75316;SDS011;63913;51.492;10.368;2023-11-19T02:10:04;0.30;;;0.10;;
75316;SDS011;63913;51.492;10.368;2023-11-19T02:12:31;0.20;;;0.00;;
75316;SDS011;63913;51.492;10.368;2023-11-19T02:15:01;0.10;;;0.10;;
75316;SDS011;63913;51.492;10.368;2023-11-19T02:17:30;1.95;;;0.30;;
75316;SDS011;63913;51.492;10.368;2023-11-19T02:20:00;0.00;;;0.00;;
75316;SDS011;63913;51.492;10.368;2023-11-19T02:22:26;0.68;;;0.38;;
75316;SDS011;63913;51.492;10.368;2023-11-19T02:24:54;0.17;;;0.10;;
75316;SDS011;63913;51.492;10.368;2023-11-19T02:27:44;0.20;;;0.20;;
75316;SDS011;63913;51.492;10.368;2023-11-19T02:30:12;0.15;;;0.15;;
75316;SDS011;63913;51.492;10.368;2023-11-19T02:32:41;1.17;;;0.13;;
75316;SDS011;63913;51.492;10.368;2023-11-19T02:35:07;0.10;;;0.10;;
75316;SDS011;63913;51.492;10.368;2023-11-19T02:37:36;0.20;;;0.20;;
75316;SDS011;63913;51.492;10.368;2023-11-19T02:40:03;0.20;;;0.20;;
75316;SDS011;63913;51.492;10.368;2023-11-19T02:42:30;0.15;;;0.10;;
75316;SDS011;63913;51.492;10.368;2023-11-19T02:44:56;0.15;;;0.15;;
75316;SDS011;63913;51.492;10.368;2023-11-19T02:47:21;0.05;;;0.05;;
75316;SDS011;63913;51.492;10.368;2023-11-19T02:49:49;0.17;;;0.10;;
75316;SDS011;63913;51.492;10.368;2023-11-19T02:52:15;0.20;;;0.20;;
75316;SDS011;63913;51.492;10.368;2023-11-19T02:54:42;0.10;;;0.08;;
75316;SDS011;63913;51.492;10.368;2023-11-19T02:57:08;0.13;;;0.13;;
75316;SDS011;63913;51.492;10.368;2023-11-19T02:59:38;0.43;;;0.28;;
75316;SDS011;63913;51.492;10.368;2023-11-19T03:02:05;0.30;;;0.30;;
75316;SDS011;63913;51.492;10.368;2023-11-19T03:04:37;0.82;;;0.13;;
75316;SDS011;63913;51.492;10.368;2023-11-19T03:07:07;0.28;;;0.28;;
75316;SDS011;63913;51.492;10.368;2023-11-19T03:09:33;0.35;;;0.20;;
75316;SDS011;63913;51.492;10.368;2023-11-19T03:12:01;0.52;;;0.45;;
75316;SDS011;63913;51.492;10.368;2023-11-19T03:14:27;0.10;;;0.10;;
75316;SDS011;63913;51.492;10.368;2023-11-19T03:16:52;0.20;;;0.20;;
75316;SDS011;63913;51.492;10.368;2023-11-19T03:19:18;0.50;;;0.25;;
75316;SDS011;63913;51.492;10.368;2023-11-19T03:21:43;0.45;;;0.45;;
75316;SDS011;63913;51.492;10.368;2023-11-19T03:24:10;0.03;;;0.03;;
75316;SDS011;63913;51.492;10.368;2023-11-19T03:26:35;0.22;;;0.22;;
75316;SDS011;63913;51.492;10.368;2023-11-19T03:29:02;0.40;;;0.30;;
75316;SDS011;63913;51.492;10.368;2023-11-19T03:31:27;0.13;;;0.13;;
75316;SDS011;63913;51.492;10.368;2023-11-19T03:33:53;0.20;;;0.10;;
75316;SDS011;63913;51.492;10.368;2023-11-19T03:36:20;0.20;;;0.20;;
75316;SDS011;63913;51.492;10.368;2023-11-19T03:38:45;0.30;;;0.30;;
75316;SDS011;63913;51.492;10.368;2023-11-19T03:41:14;0.10;;;0.10;;
75316;SDS011;63913;51.492;10.368;2023-11-19T03:43:41;0.10;;;0.10;;
75316;SDS011;63913;51.492;10.368;2023-11-19T03:48:43;0.17;;;0.17;;
75316;SDS011;63913;51.492;10.368;2023-11-19T03:51:08;0.20;;;0.20;;
75316;SDS011;63913;51.492;10.368;2023-11-19T03:53:34;0.22;;;0.22;;
75316;SDS011;63913;51.492;10.368;2023-11-19T03:56:00;0.20;;;0.20;;
75316;SDS011;63913;51.492;10.368;2023-11-19T03:58:25;0.20;;;0.20;;
75316;SDS011;63913;51.492;10.368;2023-11-19T04:00:51;0.20;;;0.20;;
75316;SDS011;63913;51.492;10.368;2023-11-19T04:03:16;0.32;;;0.28;;
75316;SDS011;63913;51.492;10.368;2023-11-19T04:05:41;0.28;;;0.28;;
75316;SDS011;63913;51.492;10.368;2023-11-19T04:08:07;0.10;;;0.10;;
75316;SDS011;63913;51.492;10.368;2023-11-19T04:10:32;0.20;;;0.20;;
75316;SDS011;63913;51.492;10.368;2023-11-19T04:12:57;0.30;;;0.30;;
75316;SDS011;63913;51.492;10.368;2023-11-19T04:15:23;0.20;;;0.20;;
75316;SDS011;63913;51.492;10.368;2023-11-19T04:17:49;0.05;;;0.05;;
75316;SDS011;63913;51.492;10.368;2023-11-19T04:20:14;0.30;;;0.20;;
75316;SDS011;63913;51.492;10.368;2023-11-19T04:22:40;0.28;;;0.28;;
75316;SDS011;63913;51.492;10.368;2023-11-19T04:25:06;0.20;;;0.20;;
75316;SDS011;63913;51.492;10.368;2023-11-19T04:27:31;1.20;;;0.20;;
75316;SDS011;63913;51.492;10.368;2023-11-19T04:29:57;0.00;;;0.00;;
75316;SDS011;63913;51.492;10.368;2023-11-19T04:32:22;0.15;;;0.15;;
75316;SDS011;63913;51.492;10.368;2023-11-19T04:34:48;0.10;;;0.10;;
75316;SDS011;63913;51.492;10.368;2023-11-19T04:37:13;0.28;;;0.20;;
75316;SDS011;63913;51.492;10.368;2023-11-19T04:39:39;0.30;;;0.22;;
75316;SDS011;63913;51.492;10.368;2023-11-19T04:42:04;0.20;;;0.13;;
75316;SDS011;63913;51.492;10.368;2023-11-19T04:44:31;0.10;;;0.10;;
75316;SDS011;63913;51.492;10.368;2023-11-19T04:46:56;0.10;;;0.10;;
75316;SDS011;63913;51.492;10.368;2023-11-19T04:49:22;0.20;;;0.20;;
75316;SDS011;63913;51.492;10.368;2023-11-19T04:51:47;0.43;;;0.20;;
75316;SDS011;63913;51.492;10.368;2023-11-19T04:54:13;0.10;;;0.10;;
75316;SDS011;63913;51.492;10.368;2023-11-19T04:56:39;0.20;;;0.10;;
75316;SDS011;63913;51.492;10.368;2023-11-19T04:59:05;0.10;;;0.10;;
75316;SDS011;63913;51.492;10.368;2023-11-19T05:01:34;0.17;;;0.10;;
75316;SDS011;63913;51.492;10.368;2023-11-19T05:04:00;0.10;;;0.10;;
75316;SDS011;63913;51.492;10.368;2023-11-19T05:06:29;0.10;;;0.10;;
75316;SDS011;63913;51.492;10.368;2023-11-19T05:08:56;0.17;;;0.17;;
75316;SDS011;63913;51.492;10.368;2023-11-19T05:11:23;0.38;;;0.20;;
75316;SDS011;63913;51.492;10.368;2023-11-19T05:13:48;0.17;;;0.17;;
75316;SDS011;63913;51.492;10.368;2023-11-19T05:16:14;0.22;;;0.22;;
75316;SDS011;63913;51.492;10.368;2023-11-19T05:18:40;0.10;;;0.10;;
75316;SDS011;63913;51.492;10.368;2023-11-19T05:21:05;0.20;;;0.20;;
75316;SDS011;63913;51.492;10.368;2023-11-19T05:23:34;1.27;;;0.30;;
75316;SDS011;63913;51.492;10.368;2023-11-19T05:26:02;0.30;;;0.28;;
75316;SDS011;63913;51.492;10.368;2023-11-19T05:28:28;0.20;;;0.20;;
75316;SDS011;63913;51.492;10.368;2023-11-19T05:30:54;2.17;;;0.50;;
75316;SDS011;63913;51.492;10.368;2023-11-19T05:33:20;0.30;;;0.30;;
75316;SDS011;63913;51.492;10.368;2023-11-19T05:35:45;0.28;;;0.20;;
75316;SDS011;63913;51.492;10.368;2023-11-19T05:38:11;0.60;;;0.40;;
75316;SDS011;63913;51.492;10.368;2023-11-19T05:40:36;0.75;;;0.43;;
75316;SDS011;63913;51.492;10.368;2023-11-19T05:43:03;0.63;;;0.50;;
75316;SDS011;63913;51.492;10.368;2023-11-19T05:45:29;0.20;;;0.20;;
75316;SDS011;63913;51.492;10.368;2023-11-19T05:47:54;1.23;;;0.30;;
75316;SDS011;63913;51.492;10.368;2023-11-19T05:50:20;0.55;;;0.55;;
75316;SDS011;63913;51.492;10.368;2023-11-19T05:52:45;0.73;;;0.35;;
75316;SDS011;63913;51.492;10.368;2023-11-19T05:55:11;0.50;;;0.40;;
75316;SDS011;63913;51.492;10.368;2023-11-19T05:57:38;0.30;;;0.30;;
75316;SDS011;63913;51.492;10.368;2023-11-19T06:00:05;1.35;;;1.25;;
75316;SDS011;63913;51.492;10.368;2023-11-19T06:02:38;0.60;;;0.50;;
75316;SDS011;63913;51.492;10.368;2023-11-19T06:05:04;0.57;;;0.35;;
75316;SDS011;63913;51.492;10.368;2023-11-19T06:07:31;2.22;;;0.70;;
75316;SDS011;63913;51.492;10.368;2023-11-19T06:09:57;0.98;;;0.47;;
75316;SDS011;63913;51.492;10.368;2023-11-19T06:12:22;0.60;;;0.52;;
75316;SDS011;63913;51.492;10.368;2023-11-19T06:14:47;1.70;;;0.63;;
75316;SDS011;63913;51.492;10.368;2023-11-19T06:17:13;0.55;;;0.40;;
75316;SDS011;63913;51.492;10.368;2023-11-19T06:19:38;0.65;;;0.65;;
75316;SDS011;63913;51.492;10.368;2023-11-19T06:22:04;0.93;;;0.60;;
75316;SDS011;63913;51.492;10.368;2023-11-19T06:24:29;0.40;;;0.40;;
75316;SDS011;63913;51.492;10.368;2023-11-19T06:26:55;0.57;;;0.57;;
75316;SDS011;63913;51.492;10.368;2023-11-19T06:29:20;0.80;;;0.73;;
75316;SDS011;63913;51.492;10.368;2023-11-19T06:31:46;1.05;;;0.60;;
75316;SDS011;63913;51.492;10.368;2023-11-19T06:34:13;1.05;;;0.55;;
75316;SDS011;63913;51.492;10.368;2023-11-19T06:36:39;2.25;;;0.73;;
75316;SDS011;63913;51.492;10.368;2023-11-19T06:39:04;1.05;;;0.60;;
75316;SDS011;63913;51.492;10.368;2023-11-19T06:41:31;4.45;;;0.82;;
75316;SDS011;63913;51.492;10.368;2023-11-19T06:43:56;3.03;;;0.60;;
75316;SDS011;63913;51.492;10.368;2023-11-19T06:46:22;1.00;;;0.63;;
75316;SDS011;63913;51.492;10.368;2023-11-19T06:48:47;0.60;;;0.60;;
75316;SDS011;63913;51.492;10.368;2023-11-19T06:51:13;1.35;;;0.63;;
75316;SDS011;63913;51.492;10.368;2023-11-19T06:53:38;3.33;;;0.68;;
75316;SDS011;63913;51.492;10.368;2023-11-19T06:56:27;0.75;;;0.70;;
75316;SDS011;63913;51.492;10.368;2023-11-19T06:58:52;1.25;;;0.95;;
75316;SDS011;63913;51.492;10.368;2023-11-19T07:01:18;0.60;;;0.60;;
75316;SDS011;63913;51.492;10.368;2023-11-19T07:03:44;1.15;;;0.75;;
75316;SDS011;63913;51.492;10.368;2023-11-19T07:06:11;2.05;;;1.10;;
75316;SDS011;63913;51.492;10.368;2023-11-19T07:08:38;1.83;;;0.85;;
75316;SDS011;63913;51.492;10.368;2023-11-19T07:11:04;3.80;;;1.35;;
75316;SDS011;63913;51.492;10.368;2023-11-19T07:13:29;3.13;;;1.10;;
75316;SDS011;63913;51.492;10.368;2023-11-19T07:15:58;1.70;;;0.93;;
75316;SDS011;63913;51.492;10.368;2023-11-19T07:18:23;2.88;;;1.10;;
75316;SDS011;63913;51.492;10.368;2023-11-19T07:20:49;1.38;;;1.10;;
75316;SDS011;63913;51.492;10.368;2023-11-19T07:23:14;1.92;;;0.98;;
75316;SDS011;63913;51.492;10.368;2023-11-19T07:25:42;2.30;;;0.90;;
75316;SDS011;63913;51.492;10.368;2023-11-19T07:28:12;2.65;;;1.25;;
75316;SDS011;63913;51.492;10.368;2023-11-19T07:30:38;2.83;;;1.25;;
75316;SDS011;63913;51.492;10.368;2023-11-19T07:33:03;5.90;;;1.63;;
75316;SDS011;63913;51.492;10.368;2023-11-19T07:35:29;3.88;;;1.38;;
75316;SDS011;63913;51.492;10.368;2023-11-19T07:37:56;6.38;;;1.50;;
75316;SDS011;63913;51.492;10.368;2023-11-19T07:40:22;4.22;;;0.98;;
75316;SDS011;63913;51.492;10.368;2023-11-19T07:42:49;2.78;;;1.13;;
75316;SDS011;63913;51.492;10.368;2023-11-19T07:45:14;3.80;;;1.48;;
75316;SDS011;63913;51.492;10.368;2023-11-19T07:47:40;3.70;;;1.70;;
75316;SDS011;63913;51.492;10.368;2023-11-19T07:50:05;3.50;;;1.58;;
75316;SDS011;63913;51.492;10.368;2023-11-19T07:52:31;3.83;;;1.15;;
75316;SDS011;63913;51.492;10.368;2023-11-19T07:54:57;1.77;;;1.17;;
75316;SDS011;63913;51.492;10.368;2023-11-19T07:57:22;3.42;;;1.40;;
75316;SDS011;63913;51.492;10.368;2023-11-19T07:59:49;5.60;;;2.22;;
75316;SDS011;63913;51.492;10.368;2023-11-19T08:02:14;4.88;;;2.03;;
75316;SDS011;63913;51.492;10.368;2023-11-19T08:04:40;6.15;;;1.80;;
75316;SDS011;63913;51.492;10.368;2023-11-19T08:07:10;4.13;;;1.63;;
75316;SDS011;63913;51.492;10.368;2023-11-19T08:09:36;3.20;;;1.85;;
75316;SDS011;63913;51.492;10.368;2023-11-19T08:12:02;3.85;;;1.30;;
75316;SDS011;63913;51.492;10.368;2023-11-19T08:14:28;3.83;;;1.60;;
75316;SDS011;63913;51.492;10.368;2023-11-19T08:16:54;3.63;;;1.88;;
75316;SDS011;63913;51.492;10.368;2023-11-19T08:19:19;5.50;;;1.50;;
75316;SDS011;63913;51.492;10.368;2023-11-19T08:21:45;8.60;;;1.95;;
75316;SDS011;63913;51.492;10.368;2023-11-19T08:24:10;7.13;;;1.80;;
75316;SDS011;63913;51.492;10.368;2023-11-19T08:26:35;9.55;;;4.15;;
75316;SDS011;63913;51.492;10.368;2023-11-19T08:29:01;5.20;;;1.87;;
75316;SDS011;63913;51.492;10.368;2023-11-19T08:31:26;5.22;;;1.25;;
75316;SDS011;63913;51.492;10.368;2023-11-19T08:33:51;4.60;;;1.73;;
75316;SDS011;63913;51.492;10.368;2023-11-19T08:36:17;3.10;;;1.15;;
75316;SDS011;63913;51.492;10.368;2023-11-19T08:38:43;4.13;;;2.42;;
75316;SDS011;63913;51.492;10.368;2023-11-19T08:41:08;6.75;;;2.05;;
75316;SDS011;63913;51.492;10.368;2023-11-19T08:43:33;3.28;;;1.27;;
75316;SDS011;63913;51.492;10.368;2023-11-19T08:45:59;3.42;;;1.08;;
75316;SDS011;63913;51.492;10.368;2023-11-19T08:48:24;3.88;;;1.23;;
75316;SDS011;63913;51.492;10.368;2023-11-19T08:50:51;2.80;;;1.27;;
75316;SDS011;63913;51.492;10.368;2023-11-19T08:53:16;2.05;;;1.20;;
75316;SDS011;63913;51.492;10.368;2023-11-19T08:55:41;3.28;;;1.40;;
75316;SDS011;63913;51.492;10.368;2023-11-19T08:58:07;6.45;;;1.15;;
75316;SDS011;63913;51.492;10.368;2023-11-19T09:00:32;2.75;;;1.50;;
75316;SDS011;63913;51.492;10.368;2023-11-19T09:02:57;3.65;;;1.15;;
75316;SDS011;63913;51.492;10.368;2023-11-19T09:05:23;1.90;;;1.20;;
75316;SDS011;63913;51.492;10.368;2023-11-19T09:07:48;2.97;;;1.38;;
75316;SDS011;63913;51.492;10.368;2023-11-19T09:10:15;4.38;;;1.42;;
75316;SDS011;63913;51.492;10.368;2023-11-19T09:12:41;4.03;;;1.50;;
75316;SDS011;63913;51.492;10.368;2023-11-19T09:15:06;3.25;;;1.63;;
75316;SDS011;63913;51.492;10.368;2023-11-19T09:17:32;3.10;;;1.30;;
75316;SDS011;63913;51.492;10.368;2023-11-19T09:19:57;3.20;;;1.35;;
75316;SDS011;63913;51.492;10.368;2023-11-19T09:22:23;4.20;;;1.40;;
75316;SDS011;63913;51.492;10.368;2023-11-19T09:24:48;5.88;;;1.45;;
75316;SDS011;63913;51.492;10.368;2023-11-19T09:27:14;2.60;;;1.30;;
75316;SDS011;63913;51.492;10.368;2023-11-19T09:29:39;7.10;;;1.77;;
75316;SDS011;63913;51.492;10.368;2023-11-19T09:32:05;5.53;;;2.00;;
75316;SDS011;63913;51.492;10.368;2023-11-19T09:34:31;6.85;;;1.58;;
75316;SDS011;63913;51.492;10.368;2023-11-19T09:36:56;6.53;;;1.90;;
75316;SDS011;63913;51.492;10.368;2023-11-19T09:39:22;4.28;;;1.10;;
75316;SDS011;63913;51.492;10.368;2023-11-19T09:41:47;9.32;;;1.27;;
75316;SDS011;63913;51.492;10.368;2023-11-19T09:44:13;10.32;;;2.47;;
75316;SDS011;63913;51.492;10.368;2023-11-19T09:46:42;10.65;;;2.00;;
75316;SDS011;63913;51.492;10.368;2023-11-19T09:49:08;5.35;;;1.48;;
75316;SDS011;63913;51.492;10.368;2023-11-19T09:51:38;6.40;;;1.65;;
75316;SDS011;63913;51.492;10.368;2023-11-19T09:54:03;8.02;;;1.48;;
75316;SDS011;63913;51.492;10.368;2023-11-19T09:56:29;7.82;;;1.52;;
75316;SDS011;63913;51.492;10.368;2023-11-19T09:58:55;6.03;;;1.50;;
75316;SDS011;63913;51.492;10.368;2023-11-19T10:01:21;4.55;;;1.20;;
75316;SDS011;63913;51.492;10.368;2023-11-19T10:03:47;9.57;;;1.55;;
75316;SDS011;63913;51.492;10.368;2023-11-19T10:06:13;7.60;;;1.30;;
75316;SDS011;63913;51.492;10.368;2023-11-19T10:08:40;2.60;;;1.23;;
75316;SDS011;63913;51.492;10.368;2023-11-19T10:11:07;13.15;;;1.67;;
75316;SDS011;63913;51.492;10.368;2023-11-19T10:13:35;8.63;;;1.48;;
75316;SDS011;63913;51.492;10.368;2023-11-19T10:16:08;4.38;;;1.23;;
75316;SDS011;63913;51.492;10.368;2023-11-19T10:18:36;3.70;;;1.55;;
75316;SDS011;63913;51.492;10.368;2023-11-19T10:21:06;10.10;;;1.50;;
75316;SDS011;63913;51.492;10.368;2023-11-19T10:23:44;4.95;;;1.67;;
75316;SDS011;63913;51.492;10.368;2023-11-19T10:26:13;6.53;;;1.60;;
75316;SDS011;63913;51.492;10.368;2023-11-19T10:28:38;9.23;;;2.38;;
75316;SDS011;63913;51.492;10.368;2023-11-19T10:31:05;9.73;;;2.08;;
75316;SDS011;63913;51.492;10.368;2023-11-19T10:33:30;4.72;;;1.30;;
75316;SDS011;63913;51.492;10.368;2023-11-19T10:35:57;4.07;;;1.88;;
75316;SDS011;63913;51.492;10.368;2023-11-19T10:38:23;8.50;;;1.63;;
75316;SDS011;63913;51.492;10.368;2023-11-19T10:40:50;6.38;;;1.77;;
75316;SDS011;63913;51.492;10.368;2023-11-19T10:43:19;3.15;;;1.58;;
75316;SDS011;63913;51.492;10.368;2023-11-19T10:45:49;14.85;;;2.58;;
75316;SDS011;63913;51.492;10.368;2023-11-19T10:48:15;10.85;;;1.88;;
75316;SDS011;63913;51.492;10.368;2023-11-19T10:50:41;3.95;;;1.70;;
75316;SDS011;63913;51.492;10.368;2023-11-19T10:53:08;7.32;;;1.63;;
75316;SDS011;63913;51.492;10.368;2023-11-19T10:55:36;11.07;;;2.47;;
75316;SDS011;63913;51.492;10.368;2023-11-19T10:58:05;5.35;;;2.97;;
75316;SDS011;63913;51.492;10.368;2023-11-19T11:00:39;10.43;;;2.83;;
75316;SDS011;63913;51.492;10.368;2023-11-19T11:03:16;8.25;;;1.67;;
75316;SDS011;63913;51.492;10.368;2023-11-19T11:05:45;6.00;;;1.60;;
75316;SDS011;63913;51.492;10.368;2023-11-19T11:08:12;9.77;;;2.25;;
75316;SDS011;63913;51.492;10.368;2023-11-19T11:10:51;3.90;;;1.15;;
75316;SDS011;63913;51.492;10.368;2023-11-19T11:13:18;11.02;;;1.88;;
75316;SDS011;63913;51.492;10.368;2023-11-19T11:15:46;10.05;;;1.88;;
75316;SDS011;63913;51.492;10.368;2023-11-19T11:18:13;9.00;;;1.50;;
75316;SDS011;63913;51.492;10.368;2023-11-19T11:20:38;8.85;;;1.48;;
75316;SDS011;63913;51.492;10.368;2023-11-19T11:36:53;10.18;;;2.55;;
75316;SDS011;63913;51.492;10.368;2023-11-19T11:39:35;11.80;;;2.78;;
75316;SDS011;63913;51.492;10.368;2023-11-19T11:50:11;12.80;;;2.72;;
75316;SDS011;63913;51.492;10.368;2023-11-19T11:55:25;14.65;;;2.35;;
75316;SDS011;63913;51.492;10.368;2023-11-19T11:57:50;11.98;;;3.40;;
75316;SDS011;63913;51.492;10.368;2023-11-19T12:03:05;8.05;;;1.90;;
75316;SDS011;63913;51.492;10.368;2023-11-19T12:05:44;9.90;;;2.28;;
75316;SDS011;63913;51.492;10.368;2023-11-19T12:08:11;6.97;;;2.33;;
75316;SDS011;63913;51.492;10.368;2023-11-19T12:10:49;7.47;;;1.90;;
75316;SDS011;63913;51.492;10.368;2023-11-19T12:16:29;5.97;;;1.30;;
75316;SDS011;63913;51.492;10.368;2023-11-19T12:18:30;13.52;;;2.25;;
75316;SDS011;63913;51.492;10.368;2023-11-19T12:20:56;6.03;;;1.50;;
75316;SDS011;63913;51.492;10.368;2023-11-19T12:23:22;10.45;;;2.25;;
75316;SDS011;63913;51.492;10.368;2023-11-19T12:25:54;11.65;;;1.77;;
75316;SDS011;63913;51.492;10.368;2023-11-19T12:28:20;14.60;;;3.40;;
75316;SDS011;63913;51.492;10.368;2023-11-19T12:30:45;7.50;;;1.70;;
75316;SDS011;63913;51.492;10.368;2023-11-19T12:33:14;11.35;;;1.83;;
75316;SDS011;63913;51.492;10.368;2023-11-19T12:39:09;9.50;;;1.73;;
75316;SDS011;63913;51.492;10.368;2023-11-19T12:41:07;10.23;;;1.90;;
75316;SDS011;63913;51.492;10.368;2023-11-19T12:43:35;11.93;;;1.98;;
75316;SDS011;63913;51.492;10.368;2023-11-19T12:46:02;13.63;;;2.20;;
75316;SDS011;63913;51.492;10.368;2023-11-19T12:48:27;7.82;;;2.53;;
75316;SDS011;63913;51.492;10.368;2023-11-19T12:50:57;13.98;;;2.63;;
75316;SDS011;63913;51.492;10.368;2023-11-19T12:53:23;9.30;;;2.15;;
75316;SDS011;63913;51.492;10.368;2023-11-19T12:55:50;9.93;;;1.92;;
75316;SDS011;63913;51.492;10.368;2023-11-19T12:58:29;6.22;;;1.85;;
75316;SDS011;63913;51.492;10.368;2023-11-19T13:00:59;13.40;;;2.42;;
75316;SDS011;63913;51.492;10.368;2023-11-19T13:03:32;7.63;;;1.95;;
75316;SDS011;63913;51.492;10.368;2023-11-19T13:06:03;11.10;;;2.28;;
75316;SDS011;63913;51.492;10.368;2023-11-19T13:08:36;9.25;;;2.10;;
75316;SDS011;63913;51.492;10.368;2023-11-19T13:11:03;7.18;;;1.75;;
75316;SDS011;63913;51.492;10.368;2023-11-19T13:13:29;7.20;;;1.60;;
75316;SDS011;63913;51.492;10.368;2023-11-19T13:16:01;8.60;;;1.92;;
75316;SDS011;63913;51.492;10.368;2023-11-19T13:18:34;8.80;;;2.35;;
75316;SDS011;63913;51.492;10.368;2023-11-19T13:20:59;7.70;;;1.77;;
75316;SDS011;63913;51.492;10.368;2023-11-19T13:23:25;16.20;;;2.10;;
75316;SDS011;63913;51.492;10.368;2023-11-19T13:25:51;7.60;;;1.67;;
75316;SDS011;63913;51.492;10.368;2023-11-19T13:28:16;13.52;;;1.98;;
75316;SDS011;63913;51.492;10.368;2023-11-19T13:30:42;5.55;;;1.50;;
75316;SDS011;63913;51.492;10.368;2023-11-19T13:33:07;10.75;;;2.47;;
75316;SDS011;63913;51.492;10.368;2023-11-19T13:35:32;11.13;;;1.63;;
75316;SDS011;63913;51.492;10.368;2023-11-19T13:37:58;10.30;;;1.63;;
75316;SDS011;63913;51.492;10.368;2023-11-19T13:40:23;10.70;;;2.17;;
75316;SDS011;63913;51.492;10.368;2023-11-19T13:42:50;9.55;;;2.55;;
75316;SDS011;63913;51.492;10.368;2023-11-19T13:45:15;9.38;;;2.10;;
75316;SDS011;63913;51.492;10.368;2023-11-19T13:47:44;12.88;;;2.35;;
75316;SDS011;63913;51.492;10.368;2023-11-19T13:50:11;9.68;;;2.20;;
75316;SDS011;63913;51.492;10.368;2023-11-19T13:52:38;12.85;;;2.60;;
75316;SDS011;63913;51.492;10.368;2023-11-19T13:55:08;9.27;;;1.90;;
75316;SDS011;63913;51.492;10.368;2023-11-19T13:57:34;16.52;;;3.35;;
75316;SDS011;63913;51.492;10.368;2023-11-19T14:00:07;13.18;;;2.40;;
75316;SDS011;63913;51.492;10.368;2023-11-19T14:02:41;10.43;;;3.13;;
75316;SDS011;63913;51.492;10.368;2023-11-19T14:05:07;12.48;;;2.67;;
75316;SDS011;63913;51.492;10.368;2023-11-19T14:07:33;10.57;;;2.33;;
75316;SDS011;63913;51.492;10.368;2023-11-19T14:09:58;7.40;;;2.22;;
75316;SDS011;63913;51.492;10.368;2023-11-19T14:12:24;5.75;;;2.53;;
75316;SDS011;63913;51.492;10.368;2023-11-19T14:14:49;6.10;;;1.70;;
75316;SDS011;63913;51.492;10.368;2023-11-19T14:17:15;11.77;;;2.20;;
75316;SDS011;63913;51.492;10.368;2023-11-19T14:19:41;13.43;;;2.78;;
75316;SDS011;63913;51.492;10.368;2023-11-19T14:22:07;8.63;;;1.95;;
75316;SDS011;63913;51.492;10.368;2023-11-19T14:24:33;15.00;;;2.00;;
75316;SDS011;63913;51.492;10.368;2023-11-19T14:26:59;6.65;;;1.70;;
75316;SDS011;63913;51.492;10.368;2023-11-19T14:29:26;8.52;;;1.83;;
75316;SDS011;63913;51.492;10.368;2023-11-19T14:31:52;6.82;;;1.75;;
75316;SDS011;63913;51.492;10.368;2023-11-19T14:34:19;7.43;;;2.15;;
75316;SDS011;63913;51.492;10.368;2023-11-19T14:36:45;13.13;;;3.30;;
75316;SDS011;63913;51.492;10.368;2023-11-19T14:39:11;13.30;;;2.58;;
75316;SDS011;63913;51.492;10.368;2023-11-19T14:41:36;10.27;;;2.53;;
75316;SDS011;63913;51.492;10.368;2023-11-19T14:44:02;9.50;;;2.40;;
75316;SDS011;63913;51.492;10.368;2023-11-19T14:46:28;5.75;;;1.80;;
75316;SDS011;63913;51.492;10.368;2023-11-19T14:48:54;11.48;;;2.00;;
75316;SDS011;63913;51.492;10.368;2023-11-19T14:51:19;12.07;;;2.22;;
75316;SDS011;63913;51.492;10.368;2023-11-19T14:53:46;8.98;;;2.25;;
75316;SDS011;63913;51.492;10.368;2023-11-19T14:56:11;11.80;;;2.65;;
75316;SDS011;63913;51.492;10.368;2023-11-19T14:58:41;7.78;;;1.95;;
75316;SDS011;63913;51.492;10.368;2023-11-19T15:01:06;5.38;;;2.20;;
75316;SDS011;63913;51.492;10.368;2023-11-19T15:03:36;11.48;;;2.33;;
75316;SDS011;63913;51.492;10.368;2023-11-19T15:06:02;14.60;;;4.28;;